sensor_id;sensor_type;location;lat;lon;timestamp;pressure;altitude;pressure_sealevel;temperature;humidity
75668;BME280;64266;48.798;44.756;2023-06-26T00:00:11;101105.84;;;17.70;55.27
75668;BME280;64266;48.798;44.756;2023-06-26T00:05:15;101110.44;;;17.75;55.62
75668;BME280;64266;48.798;44.756;2023-06-26T00:10:18;101098.78;;;17.59;55.08
75668;BME280;64266;48.798;44.756;2023-06-26T00:15:21;101097.34;;;17.52;55.36
75668;BME280;64266;48.798;44.756;2023-06-26T00:20:24;101103.25;;;17.54;55.33
75668;BME280;64266;48.798;44.756;2023-06-26T00:25:27;101108.25;;;17.45;55.82
75668;BME280;64266;48.798;44.756;2023-06-26T00:30:30;101103.59;;;17.35;55.85
75668;BME280;64266;48.798;44.756;2023-06-26T00:35:33;101108.78;;;17.42;56.01
75668;BME280;64266;48.798;44.756;2023-06-26T00:40:38;101098.91;;;17.21;56.29
75668;BME280;64266;48.798;44.756;2023-06-26T00:45:41;101123.19;;;17.36;56.47
75668;BME280;64266;48.798;44.756;2023-06-26T00:50:45;101102.78;;;17.35;56.70
75668;BME280;64266;48.798;44.756;2023-06-26T00:55:47;101094.72;;;17.30;57.01
75668;BME280;64266;48.798;44.756;2023-06-26T01:00:52;101093.84;;;17.24;57.02
75668;BME280;64266;48.798;44.756;2023-06-26T01:05:57;101110.69;;;17.20;57.79
75668;BME280;64266;48.798;44.756;2023-06-26T01:11:01;101088.84;;;17.06;58.27
75668;BME280;64266;48.798;44.756;2023-06-26T01:16:05;101103.06;;;17.07;58.44
75668;BME280;64266;48.798;44.756;2023-06-26T01:21:09;101094.72;;;17.03;59.25
75668;BME280;64266;48.798;44.756;2023-06-26T01:26:16;101110.03;;;17.08;58.89
75668;BME280;64266;48.798;44.756;2023-06-26T01:31:20;101096.31;;;17.04;59.15
75668;BME280;64266;48.798;44.756;2023-06-26T01:36:23;101110.41;;;17.16;59.50
75668;BME280;64266;48.798;44.756;2023-06-26T01:41:25;101112.81;;;17.18;59.17
75668;BME280;64266;48.798;44.756;2023-06-26T01:46:58;101127.94;;;17.29;59.47
75668;BME280;64266;48.798;44.756;2023-06-26T01:52:12;101113.44;;;17.25;58.90
75668;BME280;64266;48.798;44.756;2023-06-26T01:57:17;101122.69;;;17.39;59.16
75668;BME280;64266;48.798;44.756;2023-06-26T02:02:23;101122.25;;;17.47;58.87
75668;BME280;64266;48.798;44.756;2023-06-26T02:07:26;101115.19;;;17.41;58.08
75668;BME280;64266;48.798;44.756;2023-06-26T02:12:29;101113.97;;;17.54;57.29
75668;BME280;64266;48.798;44.756;2023-06-26T02:17:32;101128.63;;;17.68;56.79
75668;BME280;64266;48.798;44.756;2023-06-26T02:22:36;101133.84;;;17.84;56.71
75668;BME280;64266;48.798;44.756;2023-06-26T02:27:39;101118.63;;;17.90;56.41
75668;BME280;64266;48.798;44.756;2023-06-26T02:32:42;101122.59;;;18.24;55.21
75668;BME280;64266;48.798;44.756;2023-06-26T02:37:46;101116.66;;;18.59;53.76
75668;BME280;64266;48.798;44.756;2023-06-26T02:42:49;101109.25;;;18.76;53.35
75668;BME280;64266;48.798;44.756;2023-06-26T02:47:53;101108.25;;;18.98;52.75
75668;BME280;64266;48.798;44.756;2023-06-26T02:52:56;101110.47;;;19.31;52.06
75668;BME280;64266;48.798;44.756;2023-06-26T02:57:59;101101.13;;;19.79;51.16
75668;BME280;64266;48.798;44.756;2023-06-26T03:03:02;101100.00;;;20.30;49.28
75668;BME280;64266;48.798;44.756;2023-06-26T03:08:07;101104.31;;;21.00;47.91
75668;BME280;64266;48.798;44.756;2023-06-26T03:13:11;101110.13;;;22.53;44.10
75668;BME280;64266;48.798;44.756;2023-06-26T03:18:14;101098.69;;;24.24;41.16
75668;BME280;64266;48.798;44.756;2023-06-26T03:23:17;101095.56;;;25.79;37.88
75668;BME280;64266;48.798;44.756;2023-06-26T03:28:21;101095.94;;;27.13;35.05
75668;BME280;64266;48.798;44.756;2023-06-26T03:33:24;101087.81;;;27.93;32.71
75668;BME280;64266;48.798;44.756;2023-06-26T03:38:30;101098.66;;;28.66;31.82
75668;BME280;64266;48.798;44.756;2023-06-26T03:43:34;101100.03;;;29.22;31.44
75668;BME280;64266;48.798;44.756;2023-06-26T03:48:46;101086.44;;;29.99;30.26
75668;BME280;64266;48.798;44.756;2023-06-26T03:53:49;101096.19;;;30.82;28.75
75668;BME280;64266;48.798;44.756;2023-06-26T03:58:51;101085.66;;;30.96;28.72
75668;BME280;64266;48.798;44.756;2023-06-26T04:03:54;101085.69;;;31.24;27.69
75668;BME280;64266;48.798;44.756;2023-06-26T04:08:57;101078.44;;;31.87;27.29
75668;BME280;64266;48.798;44.756;2023-06-26T04:14:01;101077.84;;;32.09;27.07
75668;BME280;64266;48.798;44.756;2023-06-26T04:19:04;101083.00;;;32.26;24.95
75668;BME280;64266;48.798;44.756;2023-06-26T04:24:07;101082.47;;;32.36;25.35
75668;BME280;64266;48.798;44.756;2023-06-26T04:29:09;101084.03;;;32.37;24.53
75668;BME280;64266;48.798;44.756;2023-06-26T04:34:13;101083.41;;;32.28;25.52
75668;BME280;64266;48.798;44.756;2023-06-26T04:39:16;101084.31;;;32.83;24.44
75668;BME280;64266;48.798;44.756;2023-06-26T04:44:19;101079.47;;;32.76;24.05
75668;BME280;64266;48.798;44.756;2023-06-26T04:49:22;101076.31;;;32.58;24.65
75668;BME280;64266;48.798;44.756;2023-06-26T04:54:26;101084.06;;;33.07;23.32
75668;BME280;64266;48.798;44.756;2023-06-26T04:59:30;101057.16;;;32.97;23.15
75668;BME280;64266;48.798;44.756;2023-06-26T05:04:32;101059.50;;;33.14;23.49
75668;BME280;64266;48.798;44.756;2023-06-26T05:09:34;101057.69;;;33.41;23.21
75668;BME280;64266;48.798;44.756;2023-06-26T05:14:37;101050.16;;;32.64;24.05
75668;BME280;64266;48.798;44.756;2023-06-26T05:19:41;101050.69;;;32.19;25.21
75668;BME280;64266;48.798;44.756;2023-06-26T05:24:46;101025.78;;;31.81;25.74
75668;BME280;64266;48.798;44.756;2023-06-26T05:29:49;101052.16;;;31.86;24.82
75668;BME280;64266;48.798;44.756;2023-06-26T05:34:53;101035.22;;;30.85;25.18
75668;BME280;64266;48.798;44.756;2023-06-26T05:40:01;101044.97;;;31.65;24.23
75668;BME280;64266;48.798;44.756;2023-06-26T05:45:07;101055.50;;;31.08;25.63
75668;BME280;64266;48.798;44.756;2023-06-26T05:50:12;101053.09;;;30.42;25.09
75668;BME280;64266;48.798;44.756;2023-06-26T05:55:16;101003.94;;;29.97;26.10
75668;BME280;64266;48.798;44.756;2023-06-26T06:00:21;100963.06;;;29.44;27.25
75668;BME280;64266;48.798;44.756;2023-06-26T06:05:24;100948.22;;;29.00;26.83
75668;BME280;64266;48.798;44.756;2023-06-26T06:10:27;101031.88;;;29.58;26.90
75668;BME280;64266;48.798;44.756;2023-06-26T06:15:30;101013.66;;;29.50;27.23
75668;BME280;64266;48.798;44.756;2023-06-26T06:20:33;101026.53;;;29.29;27.00
75668;BME280;64266;48.798;44.756;2023-06-26T06:25:36;101024.22;;;28.98;27.50
75668;BME280;64266;48.798;44.756;2023-06-26T06:30:39;101021.75;;;29.05;28.12
75668;BME280;64266;48.798;44.756;2023-06-26T06:35:47;101013.03;;;29.44;27.12
75668;BME280;64266;48.798;44.756;2023-06-26T06:40:51;101016.56;;;30.62;26.47
75668;BME280;64266;48.798;44.756;2023-06-26T06:45:55;101010.31;;;31.45;24.25
75668;BME280;64266;48.798;44.756;2023-06-26T06:50:58;100986.16;;;31.35;24.48
75668;BME280;64266;48.798;44.756;2023-06-26T06:56:01;100983.94;;;31.53;24.36
75668;BME280;64266;48.798;44.756;2023-06-26T07:01:03;100997.75;;;32.03;23.92
75668;BME280;64266;48.798;44.756;2023-06-26T07:06:08;100986.38;;;32.55;24.34
75668;BME280;64266;48.798;44.756;2023-06-26T07:11:12;100992.50;;;32.30;23.78
75668;BME280;64266;48.798;44.756;2023-06-26T07:16:14;100976.75;;;32.11;23.46
75668;BME280;64266;48.798;44.756;2023-06-26T07:21:18;100972.78;;;32.08;23.08
75668;BME280;64266;48.798;44.756;2023-06-26T07:26:21;100977.16;;;32.29;22.73
75668;BME280;64266;48.798;44.756;2023-06-26T07:31:44;100969.44;;;31.68;24.35
75668;BME280;64266;48.798;44.756;2023-06-26T07:36:48;100971.13;;;31.29;25.18
75668;BME280;64266;48.798;44.756;2023-06-26T07:41:51;100951.81;;;31.53;23.55
75668;BME280;64266;48.798;44.756;2023-06-26T07:46:54;100958.50;;;31.40;25.06
75668;BME280;64266;48.798;44.756;2023-06-26T07:51:57;100956.94;;;31.11;24.70
75668;BME280;64266;48.798;44.756;2023-06-26T07:57:03;100959.94;;;30.79;25.81
75668;BME280;64266;48.798;44.756;2023-06-26T08:02:07;100974.75;;;30.26;26.10
75668;BME280;64266;48.798;44.756;2023-06-26T08:07:09;100966.72;;;29.60;27.07
75668;BME280;64266;48.798;44.756;2023-06-26T08:12:13;100960.88;;;29.37;28.00
75668;BME280;64266;48.798;44.756;2023-06-26T08:17:16;100960.41;;;29.35;27.52
75668;BME280;64266;48.798;44.756;2023-06-26T08:22:19;100951.63;;;29.30;27.67
75668;BME280;64266;48.798;44.756;2023-06-26T08:27:22;100951.09;;;29.03;28.71
75668;BME280;64266;48.798;44.756;2023-06-26T08:32:25;100952.88;;;28.67;29.07
75668;BME280;64266;48.798;44.756;2023-06-26T08:37:28;100938.84;;;28.27;30.09
75668;BME280;64266;48.798;44.756;2023-06-26T08:42:32;100933.47;;;28.10;30.39
75668;BME280;64266;48.798;44.756;2023-06-26T08:47:35;100932.66;;;27.80;30.71
75668;BME280;64266;48.798;44.756;2023-06-26T08:52:53;100929.88;;;27.88;30.25
75668;BME280;64266;48.798;44.756;2023-06-26T08:57:58;100930.41;;;27.82;30.09
75668;BME280;64266;48.798;44.756;2023-06-26T09:03:03;100926.69;;;27.86;30.42
75668;BME280;64266;48.798;44.756;2023-06-26T09:08:07;100912.16;;;27.74;30.40
75668;BME280;64266;48.798;44.756;2023-06-26T09:13:10;100931.66;;;27.84;29.80
75668;BME280;64266;48.798;44.756;2023-06-26T09:18:32;100902.09;;;27.66;30.03
75668;BME280;64266;48.798;44.756;2023-06-26T09:23:36;100903.50;;;27.72;31.33
75668;BME280;64266;48.798;44.756;2023-06-26T09:28:42;100911.53;;;28.06;31.19
75668;BME280;64266;48.798;44.756;2023-06-26T09:33:46;100896.09;;;27.81;30.59
75668;BME280;64266;48.798;44.756;2023-06-26T09:38:51;100899.75;;;27.85;29.98
75668;BME280;64266;48.798;44.756;2023-06-26T09:43:54;100887.94;;;27.81;29.77
75668;BME280;64266;48.798;44.756;2023-06-26T09:49:04;100880.94;;;27.63;30.37
75668;BME280;64266;48.798;44.756;2023-06-26T09:54:09;100894.22;;;27.73;29.71
75668;BME280;64266;48.798;44.756;2023-06-26T09:59:13;100885.31;;;27.84;30.36
75668;BME280;64266;48.798;44.756;2023-06-26T10:04:16;100880.66;;;27.85;29.82
75668;BME280;64266;48.798;44.756;2023-06-26T10:09:21;100878.09;;;27.88;29.80
75668;BME280;64266;48.798;44.756;2023-06-26T10:14:39;100875.97;;;27.94;29.37
75668;BME280;64266;48.798;44.756;2023-06-26T10:19:48;100855.16;;;27.60;29.74
75668;BME280;64266;48.798;44.756;2023-06-26T10:24:55;100845.88;;;27.61;28.66
75668;BME280;64266;48.798;44.756;2023-06-26T10:30:00;100869.97;;;27.80;28.92
75668;BME280;64266;48.798;44.756;2023-06-26T10:35:06;100842.94;;;27.66;28.58
75668;BME280;64266;48.798;44.756;2023-06-26T10:40:11;100838.44;;;27.70;29.39
75668;BME280;64266;48.798;44.756;2023-06-26T10:45:21;100845.28;;;27.76;28.24
75668;BME280;64266;48.798;44.756;2023-06-26T10:50:27;100835.94;;;27.86;29.01
75668;BME280;64266;48.798;44.756;2023-06-26T10:55:31;100831.44;;;27.90;28.45
75668;BME280;64266;48.798;44.756;2023-06-26T11:00:34;100834.63;;;27.92;29.33
75668;BME280;64266;48.798;44.756;2023-06-26T11:05:37;100828.69;;;27.90;28.31
75668;BME280;64266;48.798;44.756;2023-06-26T11:10:54;100842.28;;;27.98;29.29
75668;BME280;64266;48.798;44.756;2023-06-26T11:15:58;100846.47;;;27.96;28.64
75668;BME280;64266;48.798;44.756;2023-06-26T11:21:08;100832.75;;;27.84;27.21
75668;BME280;64266;48.798;44.756;2023-06-26T11:26:16;100822.88;;;27.71;27.29
75668;BME280;64266;48.798;44.756;2023-06-26T11:31:28;100825.84;;;27.57;27.76
75668;BME280;64266;48.798;44.756;2023-06-26T11:36:34;100815.94;;;27.53;28.93
75668;BME280;64266;48.798;44.756;2023-06-26T11:41:40;100812.66;;;27.68;28.38
75668;BME280;64266;48.798;44.756;2023-06-26T11:46:43;100803.31;;;27.69;27.29
75668;BME280;64266;48.798;44.756;2023-06-26T11:51:49;100787.13;;;27.72;27.25
75668;BME280;64266;48.798;44.756;2023-06-26T11:56:56;100789.13;;;27.84;26.47
75668;BME280;64266;48.798;44.756;2023-06-26T12:02:04;100788.56;;;27.70;27.57
75668;BME280;64266;48.798;44.756;2023-06-26T12:07:09;100769.19;;;27.71;27.02
75668;BME280;64266;48.798;44.756;2023-06-26T12:12:16;100765.66;;;27.71;26.87
75668;BME280;64266;48.798;44.756;2023-06-26T12:17:22;100774.50;;;27.68;27.26
75668;BME280;64266;48.798;44.756;2023-06-26T12:22:34;100756.66;;;27.50;27.91
75668;BME280;64266;48.798;44.756;2023-06-26T12:27:38;100750.81;;;27.60;28.20
75668;BME280;64266;48.798;44.756;2023-06-26T12:32:44;100766.50;;;27.63;28.09
75668;BME280;64266;48.798;44.756;2023-06-26T12:37:48;100768.47;;;27.54;27.41
75668;BME280;64266;48.798;44.756;2023-06-26T12:42:53;100759.41;;;27.50;27.22
75668;BME280;64266;48.798;44.756;2023-06-26T12:48:07;100772.53;;;27.48;26.90
75668;BME280;64266;48.798;44.756;2023-06-26T12:53:10;100753.94;;;27.50;28.62
75668;BME280;64266;48.798;44.756;2023-06-26T12:58:16;100750.03;;;27.59;27.40
75668;BME280;64266;48.798;44.756;2023-06-26T13:03:20;100756.91;;;27.57;26.61
75668;BME280;64266;48.798;44.756;2023-06-26T13:08:24;100754.09;;;27.74;26.61
75668;BME280;64266;48.798;44.756;2023-06-26T13:13:27;100732.75;;;27.55;26.00
75668;BME280;64266;48.798;44.756;2023-06-26T13:18:29;100766.91;;;27.73;26.15
75668;BME280;64266;48.798;44.756;2023-06-26T13:23:33;100766.31;;;27.68;27.53
75668;BME280;64266;48.798;44.756;2023-06-26T13:28:37;100764.34;;;27.77;27.03
75668;BME280;64266;48.798;44.756;2023-06-26T13:33:40;100764.47;;;27.80;27.34
75668;BME280;64266;48.798;44.756;2023-06-26T13:38:44;100770.50;;;27.86;27.38
75668;BME280;64266;48.798;44.756;2023-06-26T13:43:47;100755.28;;;27.85;26.42
75668;BME280;64266;48.798;44.756;2023-06-26T13:48:50;100750.34;;;27.78;27.59
75668;BME280;64266;48.798;44.756;2023-06-26T13:53:53;100746.31;;;27.64;26.74
75668;BME280;64266;48.798;44.756;2023-06-26T13:58:58;100738.84;;;27.52;26.66
75668;BME280;64266;48.798;44.756;2023-06-26T14:04:00;100737.44;;;27.46;27.25
75668;BME280;64266;48.798;44.756;2023-06-26T14:09:03;100733.47;;;27.43;27.81
75668;BME280;64266;48.798;44.756;2023-06-26T14:14:06;100725.66;;;27.33;26.41
75668;BME280;64266;48.798;44.756;2023-06-26T14:19:09;100732.94;;;27.21;26.51
75668;BME280;64266;48.798;44.756;2023-06-26T14:24:17;100730.75;;;27.06;26.93
75668;BME280;64266;48.798;44.756;2023-06-26T14:29:19;100718.31;;;26.96;26.81
75668;BME280;64266;48.798;44.756;2023-06-26T14:34:24;100715.03;;;26.82;27.86
75668;BME280;64266;48.798;44.756;2023-06-26T14:39:26;100729.41;;;26.74;27.25
75668;BME280;64266;48.798;44.756;2023-06-26T14:44:29;100735.34;;;26.67;26.45
75668;BME280;64266;48.798;44.756;2023-06-26T14:49:32;100712.22;;;26.53;26.95
75668;BME280;64266;48.798;44.756;2023-06-26T14:54:35;100724.84;;;26.57;26.93
75668;BME280;64266;48.798;44.756;2023-06-26T14:59:39;100738.59;;;26.61;27.38
75668;BME280;64266;48.798;44.756;2023-06-26T15:04:42;100687.78;;;26.35;27.27
75668;BME280;64266;48.798;44.756;2023-06-26T15:09:44;100719.84;;;26.68;27.36
75668;BME280;64266;48.798;44.756;2023-06-26T15:14:47;100742.41;;;26.68;26.36
75668;BME280;64266;48.798;44.756;2023-06-26T15:19:50;100737.31;;;26.67;28.04
75668;BME280;64266;48.798;44.756;2023-06-26T15:24:53;100716.84;;;26.61;27.41
75668;BME280;64266;48.798;44.756;2023-06-26T15:29:56;100705.47;;;26.59;26.41
75668;BME280;64266;48.798;44.756;2023-06-26T15:34:59;100704.50;;;26.63;27.32
75668;BME280;64266;48.798;44.756;2023-06-26T15:40:05;100686.63;;;26.54;27.45
75668;BME280;64266;48.798;44.756;2023-06-26T15:45:08;100702.94;;;26.54;27.20
75668;BME280;64266;48.798;44.756;2023-06-26T15:50:11;100689.06;;;26.38;28.00
75668;BME280;64266;48.798;44.756;2023-06-26T15:55:14;100694.81;;;26.36;27.78
75668;BME280;64266;48.798;44.756;2023-06-26T16:00:17;100675.66;;;26.24;27.62
75668;BME280;64266;48.798;44.756;2023-06-26T16:05:21;100673.56;;;26.21;28.62
75668;BME280;64266;48.798;44.756;2023-06-26T16:10:23;100673.09;;;26.19;28.09
75668;BME280;64266;48.798;44.756;2023-06-26T16:15:26;100665.59;;;26.08;28.50
75668;BME280;64266;48.798;44.756;2023-06-26T16:20:28;100648.97;;;26.01;29.30
75668;BME280;64266;48.798;44.756;2023-06-26T16:25:31;100647.25;;;25.79;29.85
75668;BME280;64266;48.798;44.756;2023-06-26T16:30:34;100653.31;;;25.76;29.97
75668;BME280;64266;48.798;44.756;2023-06-26T16:35:37;100642.59;;;25.54;30.43
75668;BME280;64266;48.798;44.756;2023-06-26T16:40:41;100662.28;;;25.59;30.71
75668;BME280;64266;48.798;44.756;2023-06-26T16:45:44;100676.81;;;25.55;30.57
75668;BME280;64266;48.798;44.756;2023-06-26T16:50:47;100670.38;;;25.42;31.15
75668;BME280;64266;48.798;44.756;2023-06-26T16:55:50;100676.28;;;25.35;31.09
75668;BME280;64266;48.798;44.756;2023-06-26T17:00:53;100674.19;;;25.24;31.41
75668;BME280;64266;48.798;44.756;2023-06-26T17:05:56;100665.06;;;25.11;31.73
75668;BME280;64266;48.798;44.756;2023-06-26T17:10:58;100676.53;;;25.08;32.16
75668;BME280;64266;48.798;44.756;2023-06-26T17:16:02;100677.63;;;24.99;32.63
75668;BME280;64266;48.798;44.756;2023-06-26T17:21:05;100677.63;;;24.90;32.78
75668;BME280;64266;48.798;44.756;2023-06-26T17:26:07;100695.00;;;24.89;32.87
75668;BME280;64266;48.798;44.756;2023-06-26T17:31:10;100686.16;;;24.75;33.22
75668;BME280;64266;48.798;44.756;2023-06-26T17:36:13;100711.22;;;24.80;34.00
75668;BME280;64266;48.798;44.756;2023-06-26T17:41:16;100726.69;;;24.80;33.88
75668;BME280;64266;48.798;44.756;2023-06-26T17:46:18;100718.69;;;24.75;33.90
75668;BME280;64266;48.798;44.756;2023-06-26T17:51:21;100718.22;;;24.73;33.99
75668;BME280;64266;48.798;44.756;2023-06-26T17:56:23;100711.34;;;24.67;33.90
75668;BME280;64266;48.798;44.756;2023-06-26T18:01:25;100726.34;;;24.73;33.94
75668;BME280;64266;48.798;44.756;2023-06-26T18:06:28;100722.47;;;24.65;34.32
75668;BME280;64266;48.798;44.756;2023-06-26T18:11:32;100729.00;;;24.64;34.47
75668;BME280;64266;48.798;44.756;2023-06-26T18:16:35;100730.94;;;24.64;34.97
75668;BME280;64266;48.798;44.756;2023-06-26T18:21:37;100713.19;;;24.58;34.81
75668;BME280;64266;48.798;44.756;2023-06-26T18:26:40;100709.06;;;24.60;35.08
75668;BME280;64266;48.798;44.756;2023-06-26T18:31:42;100719.94;;;24.69;35.31
75668;BME280;64266;48.798;44.756;2023-06-26T18:36:44;100716.75;;;24.67;35.72
75668;BME280;64266;48.798;44.756;2023-06-26T18:41:47;100709.56;;;24.71;36.24
75668;BME280;64266;48.798;44.756;2023-06-26T18:46:50;100689.31;;;24.68;36.20
75668;BME280;64266;48.798;44.756;2023-06-26T18:51:52;100683.88;;;24.68;36.13
75668;BME280;64266;48.798;44.756;2023-06-26T18:56:55;100673.31;;;24.58;35.57
75668;BME280;64266;48.798;44.756;2023-06-26T19:02:03;100670.13;;;24.56;36.07
75668;BME280;64266;48.798;44.756;2023-06-26T19:07:06;100681.53;;;24.45;36.73
75668;BME280;64266;48.798;44.756;2023-06-26T19:12:08;100680.28;;;24.20;38.50
75668;BME280;64266;48.798;44.756;2023-06-26T19:17:11;100696.22;;;24.21;39.42
75668;BME280;64266;48.798;44.756;2023-06-26T19:22:13;100694.13;;;24.18;38.49
75668;BME280;64266;48.798;44.756;2023-06-26T19:27:16;100709.59;;;24.18;37.29
75668;BME280;64266;48.798;44.756;2023-06-26T19:32:18;100728.88;;;24.16;36.30
75668;BME280;64266;48.798;44.756;2023-06-26T19:37:21;100753.41;;;24.11;36.58
75668;BME280;64266;48.798;44.756;2023-06-26T19:42:23;100769.84;;;24.01;37.43
75668;BME280;64266;48.798;44.756;2023-06-26T19:47:26;100745.22;;;23.89;37.19
75668;BME280;64266;48.798;44.756;2023-06-26T19:52:28;100737.19;;;23.84;36.22
75668;BME280;64266;48.798;44.756;2023-06-26T19:57:31;100735.09;;;23.81;36.81
75668;BME280;64266;48.798;44.756;2023-06-26T20:02:34;100741.31;;;23.82;36.64
75668;BME280;64266;48.798;44.756;2023-06-26T20:07:38;100754.63;;;23.92;37.42
75668;BME280;64266;48.798;44.756;2023-06-26T20:12:41;100746.06;;;23.76;37.69
75668;BME280;64266;48.798;44.756;2023-06-26T20:17:44;100759.84;;;23.88;38.54
75668;BME280;64266;48.798;44.756;2023-06-26T20:22:47;100748.22;;;23.88;40.97
75668;BME280;64266;48.798;44.756;2023-06-26T20:27:50;100711.53;;;23.82;41.27
75668;BME280;64266;48.798;44.756;2023-06-26T20:32:52;100691.88;;;23.76;39.93
75668;BME280;64266;48.798;44.756;2023-06-26T20:37:55;100683.28;;;23.74;41.27
75668;BME280;64266;48.798;44.756;2023-06-26T20:42:59;100666.50;;;23.50;42.40
75668;BME280;64266;48.798;44.756;2023-06-26T20:48:03;100646.19;;;23.11;43.01
75668;BME280;64266;48.798;44.756;2023-06-26T20:53:07;100626.09;;;22.77;43.77
75668;BME280;64266;48.798;44.756;2023-06-26T20:58:10;100594.06;;;22.70;41.05
75668;BME280;64266;48.798;44.756;2023-06-26T21:03:13;100579.63;;;22.75;40.16
75668;BME280;64266;48.798;44.756;2023-06-26T21:08:16;100570.50;;;22.84;37.69
75668;BME280;64266;48.798;44.756;2023-06-26T21:13:19;100586.63;;;22.89;35.91
75668;BME280;64266;48.798;44.756;2023-06-26T21:18:22;100607.44;;;23.02;34.65
75668;BME280;64266;48.798;44.756;2023-06-26T21:23:25;100610.63;;;23.04;34.90
75668;BME280;64266;48.798;44.756;2023-06-26T21:28:27;100610.34;;;23.06;34.72
75668;BME280;64266;48.798;44.756;2023-06-26T21:33:30;100606.97;;;23.00;34.99
75668;BME280;64266;48.798;44.756;2023-06-26T21:38:34;100630.28;;;22.96;35.40
75668;BME280;64266;48.798;44.756;2023-06-26T21:43:37;100639.72;;;22.85;35.92
75668;BME280;64266;48.798;44.756;2023-06-26T21:48:40;100642.03;;;22.78;36.36
75668;BME280;64266;48.798;44.756;2023-06-26T21:53:45;100628.63;;;22.73;36.95
75668;BME280;64266;48.798;44.756;2023-06-26T21:58:48;100604.13;;;22.64;36.70
75668;BME280;64266;48.798;44.756;2023-06-26T22:03:51;100594.72;;;22.62;36.97
75668;BME280;64266;48.798;44.756;2023-06-26T22:08:53;100596.44;;;22.58;37.76
75668;BME280;64266;48.798;44.756;2023-06-26T22:13:56;100584.81;;;22.44;38.17
75668;BME280;64266;48.798;44.756;2023-06-26T22:18:59;100605.66;;;22.57;38.10
75668;BME280;64266;48.798;44.756;2023-06-26T22:24:02;100598.34;;;22.44;38.46
75668;BME280;64266;48.798;44.756;2023-06-26T22:29:07;100603.75;;;22.44;37.48
75668;BME280;64266;48.798;44.756;2023-06-26T22:34:09;100579.59;;;22.34;37.60
75668;BME280;64266;48.798;44.756;2023-06-26T22:39:15;100598.63;;;22.29;37.43
75668;BME280;64266;48.798;44.756;2023-06-26T22:44:18;100597.72;;;22.20;37.90
75668;BME280;64266;48.798;44.756;2023-06-26T22:49:22;100616.13;;;22.18;37.69
75668;BME280;64266;48.798;44.756;2023-06-26T22:54:24;100608.78;;;22.04;37.94
75668;BME280;64266;48.798;44.756;2023-06-26T22:59:27;100642.34;;;22.17;37.75
75668;BME280;64266;48.798;44.756;2023-06-26T23:04:30;100650.72;;;22.15;37.80
75668;BME280;64266;48.798;44.756;2023-06-26T23:09:33;100665.03;;;22.16;37.79
75668;BME280;64266;48.798;44.756;2023-06-26T23:14:35;100675.03;;;22.15;38.06
75668;BME280;64266;48.798;44.756;2023-06-26T23:19:39;100685.22;;;22.05;38.22
75668;BME280;64266;48.798;44.756;2023-06-26T23:24:44;100718.09;;;22.26;37.88
75668;BME280;64266;48.798;44.756;2023-06-26T23:29:47;100693.94;;;22.15;37.52
75668;BME280;64266;48.798;44.756;2023-06-26T23:34:49;100752.13;;;22.27;37.94
75668;BME280;64266;48.798;44.756;2023-06-26T23:39:53;100755.94;;;22.26;38.29
75668;BME280;64266;48.798;44.756;2023-06-26T23:44:56;100737.00;;;22.26;39.29
75668;BME280;64266;48.798;44.756;2023-06-26T23:50:05;100746.16;;;22.30;39.81
75668;BME280;64266;48.798;44.756;2023-06-26T23:55:10;100751.91;;;22.23;40.21
